Terminal Aerodrome Forecast
Issued by NWS Jacksonville, FL

Home | Current Version | Previous Version | Text Only | Print | Product List | Glossary On
Versions: 1 2 3 4 5 6 7 8 9 10 11 12 13 14 15 16 17 18 19 20 21
000
FTUS42 KJAX 311100
TAFSSI
TAF
KSSI 311120Z 3112/0112 VRB04KT P6SM FEW025 SCT250
     FM311400 14009KT P6SM VCSH SCT025 SCT070 SCT250
     FM311700 12011KT P6SM VCTS BKN030CB BKN070 BKN250
     FM010200 11008KT P6SM SCT025 SCT070 SCT250=

USA.gov is the U.S. government's official web portal to all federal, state and local government web resources and services.